Terminal Aerodrome Forecast
Issued by NWS

Home | Current Version | Previous Version | Text Only | Print | Product List | Glossary Off
Versions: 1 2 3 4 5 6 7 8 9 10 11 12 13 14 15 16 17 18 19 20 21 22

000
FTUS43 KBIS 260500
TAFMOT
TAF
KMOT 260521Z 2606/2706 23006KT P6SM SKC
     FM261300 25018G25KT P6SM SCT230
     FM261600 27023G33KT P6SM VCSH OVC050
     FM270200 30015KT P6SM BKN050=

USA.gov is the U.S. government's official web portal to all federal, state and local government web resources and services.